Time;durP1;ratioP1;P1;durP2;ratioP2;P2;SDS_P1;SDS_P2;PMS_P1;PMS_P2;Temp;Humidity;BMP_temperature;BMP_pressure;BME280_temperature;BME280_humidity;BME280_pressure;Samples;Min_cycle;Max_cycle;Signal;HPM_P1;HPM_P2
2024/02/26 00:02:14;;;;;;;4.15;1.20;;;9.50;94.50;;;;;;5053165;28;20120;-78
2024/02/26 00:04:40;;;;;;;1.70;0.80;;;9.50;94.40;;;;;;5053952;28;20056;-78
2024/02/26 00:07:05;;;;;;;2.55;1.13;;;9.50;94.10;;;;;;5053235;28;20116;-78
2024/02/26 00:09:31;;;;;;;2.03;1.08;;;9.50;94.20;;;;;;5053865;28;20387;-79
2024/02/26 00:11:57;;;;;;;2.40;1.10;;;9.50;94.20;;;;;;5053877;28;20025;-78
2024/02/26 00:14:23;;;;;;;1.90;0.95;;;9.50;94.30;;;;;;5053232;28;20037;-78
2024/02/26 00:16:49;;;;;;;2.25;1.00;;;9.50;94.20;;;;;;5053596;28;20033;-79
2024/02/26 00:19:14;;;;;;;2.55;1.27;;;9.50;94.10;;;;;;5052999;28;20025;-77
2024/02/26 00:21:44;;;;;;;3.65;1.00;;;9.50;94.30;;;;;;5054828;28;20052;-77
2024/02/26 00:24:09;;;;;;;1.38;0.90;;;9.50;94.20;;;;;;5053098;28;20079;-76
2024/02/26 00:26:35;;;;;;;1.70;0.93;;;9.50;93.90;;;;;;5053917;28;20029;-76
2024/02/26 00:29:00;;;;;;;1.92;0.90;;;9.60;93.80;;;;;;5053761;28;20074;-75
2024/02/26 00:31:26;;;;;;;1.13;0.82;;;9.60;93.80;;;;;;5052848;28;20043;-77
2024/02/26 00:33:51;;;;;;;2.33;0.90;;;9.60;93.90;;;;;;5053658;28;20094;-77
2024/02/26 00:36:18;;;;;;;0.93;0.80;;;9.60;93.70;;;;;;5052817;28;20031;-77
2024/02/26 00:38:46;;;;;;;1.45;1.02;;;9.60;94.00;;;;;;5054638;28;20021;-76
2024/02/26 00:41:11;;;;;;;2.22;0.60;;;9.60;94.60;;;;;;5053899;28;20102;-76
2024/02/26 00:43:39;;;;;;;1.83;0.80;;;9.60;94.10;;;;;;5053420;28;20433;-75
2024/02/26 00:46:05;;;;;;;2.17;0.65;;;9.60;94.80;;;;;;5052640;28;20053;-76
2024/02/26 00:48:30;;;;;;;2.47;0.70;;;9.50;94.90;;;;;;5053085;28;20382;-76
2024/02/26 00:50:56;;;;;;;1.00;0.90;;;9.50;94.90;;;;;;5053088;28;20068;-79
2024/02/26 00:53:22;;;;;;;0.98;0.73;;;9.50;95.10;;;;;;5053461;28;20021;-76
2024/02/26 00:55:47;;;;;;;4.07;0.90;;;9.50;95.40;;;;;;5053239;28;20422;-76
2024/02/26 00:58:13;;;;;;;3.28;1.00;;;9.50;95.60;;;;;;5052552;28;20029;-76
2024/02/26 01:00:38;;;;;;;1.55;0.80;;;9.50;96.70;;;;;;5054060;28;20470;-76
2024/02/26 01:03:04;;;;;;;1.65;0.70;;;9.50;97.10;;;;;;5052869;28;20036;-76
2024/02/26 01:05:30;;;;;;;2.25;1.15;;;9.50;97.60;;;;;;5052766;28;20056;-76
2024/02/26 01:07:56;;;;;;;1.23;0.85;;;9.50;97.50;;;;;;5052638;28;20431;-76
2024/02/26 01:10:21;;;;;;;1.80;0.90;;;9.50;97.80;;;;;;5051942;28;20021;-75
2024/02/26 01:12:47;;;;;;;0.77;0.63;;;9.40;99.00;;;;;;5052267;28;20477;-75
2024/02/26 01:15:13;;;;;;;1.75;0.80;;;9.40;98.40;;;;;;5052015;28;20426;-75
2024/02/26 01:17:38;;;;;;;1.98;0.85;;;9.30;99.50;;;;;;5052223;28;20029;-75
2024/02/26 01:20:06;;;;;;;2.17;0.80;;;9.20;99.90;;;;;;5053660;28;20071;-75
2024/02/26 01:22:32;;;;;;;1.88;0.95;;;9.20;99.90;;;;;;5053559;28;20075;-76
2024/02/26 01:24:58;;;;;;;1.52;0.73;;;9.20;99.90;;;;;;5052186;28;20409;-75
2024/02/26 01:27:26;;;;;;;1.70;0.90;;;9.30;99.90;;;;;;5051404;28;20056;-75
2024/02/26 01:29:52;;;;;;;0.90;0.70;;;9.20;99.90;;;;;;5053231;28;20021;-75
2024/02/26 01:32:18;;;;;;;1.35;0.90;;;9.30;99.90;;;;;;5052979;28;20029;-76
2024/02/26 01:34:43;;;;;;;1.23;0.77;;;9.30;99.70;;;;;;5052009;28;20382;-75
2024/02/26 01:37:09;;;;;;;2.90;0.73;;;9.30;99.40;;;;;;5052679;28;20494;-75
2024/02/26 01:39:35;;;;;;;1.15;0.65;;;9.30;98.80;;;;;;5053054;28;20063;-76
2024/02/26 01:42:01;;;;;;;0.90;0.60;;;9.30;98.60;;;;;;5051774;28;20040;-75
2024/02/26 01:44:27;;;;;;;2.53;0.80;;;9.30;98.90;;;;;;5052205;28;20274;-75
2024/02/26 01:46:53;;;;;;;1.17;0.70;;;9.30;99.30;;;;;;5053186;28;20032;-76
2024/02/26 01:49:19;;;;;;;1.15;0.70;;;9.30;99.90;;;;;;5051533;28;20056;-76
2024/02/26 01:51:46;;;;;;;0.82;0.60;;;9.30;99.90;;;;;;5052199;28;20036;-75
2024/02/26 01:54:12;;;;;;;1.85;0.90;;;9.30;99.90;;;;;;5052563;28;20025;-75
2024/02/26 01:56:39;;;;;;;2.58;0.98;;;9.20;99.90;;;;;;5053123;28;20021;-75
2024/02/26 01:59:06;;;;;;;1.88;0.70;;;9.20;99.90;;;;;;5051793;28;20025;-75
2024/02/26 02:01:34;;;;;;;1.92;0.80;;;9.20;99.90;;;;;;5051198;28;20029;-75
2024/02/26 02:04:00;;;;;;;0.95;0.80;;;9.20;99.90;;;;;;5051793;28;20390;-75
2024/02/26 02:06:27;;;;;;;0.85;0.65;;;9.20;99.90;;;;;;5051178;28;20032;-76
2024/02/26 02:08:54;;;;;;;1.27;0.85;;;9.30;99.90;;;;;;5051619;28;20072;-76
2024/02/26 02:11:20;;;;;;;0.93;0.52;;;9.20;99.90;;;;;;5052162;28;20115;-77
2024/02/26 02:13:46;;;;;;;1.73;0.68;;;9.20;99.90;;;;;;5051847;28;20064;-76
2024/02/26 02:16:12;;;;;;;1.15;0.55;;;9.20;99.90;;;;;;5052364;28;20025;-75
2024/02/26 02:18:37;;;;;;;0.93;0.60;;;9.30;99.90;;;;;;5051552;28;20029;-76
2024/02/26 02:21:03;;;;;;;0.88;0.40;;;9.30;99.90;;;;;;5051626;28;20386;-76
2024/02/26 02:23:29;;;;;;;0.70;0.40;;;9.40;99.90;;;;;;5050937;28;20333;-76
2024/02/26 02:25:57;;;;;;;0.57;0.22;;;9.40;99.90;;;;;;5052794;28;20526;-76
2024/02/26 02:28:24;;;;;;;0.80;0.32;;;9.30;99.90;;;;;;5052186;28;20029;-76
2024/02/26 02:30:50;;;;;;;1.35;0.40;;;9.30;99.90;;;;;;5051590;28;20033;-76
2024/02/26 02:33:16;;;;;;;0.20;0.20;;;9.30;99.90;;;;;;5052518;28;20107;-75
2024/02/26 02:35:42;;;;;;;0.70;0.40;;;9.30;99.90;;;;;;5052925;28;20025;-76
2024/02/26 02:38:08;;;;;;;0.50;0.47;;;9.40;99.90;;;;;;5052623;28;20036;-77
2024/02/26 02:40:33;;;;;;;0.38;0.28;;;9.40;99.90;;;;;;5054214;28;20171;-76
2024/02/26 02:42:59;;;;;;;0.22;0.22;;;9.40;99.90;;;;;;5055763;28;20035;-77
2024/02/26 02:45:25;;;;;;;0.20;0.20;;;9.30;99.90;;;;;;5056314;28;20052;-77
2024/02/26 02:47:51;;;;;;;0.30;0.20;;;9.30;99.90;;;;;;5055989;28;20029;-76
2024/02/26 02:50:17;;;;;;;0.38;0.20;;;9.30;99.90;;;;;;5054848;28;20463;-76
2024/02/26 02:52:42;;;;;;;0.38;0.32;;;9.30;99.90;;;;;;5055467;28;20029;-76
2024/02/26 02:55:08;;;;;;;0.20;0.20;;;9.20;99.90;;;;;;5056473;28;20086;-76
2024/02/26 02:57:33;;;;;;;0.52;0.20;;;9.10;99.90;;;;;;5055861;28;20025;-76
2024/02/26 02:59:59;;;;;;;0.25;0.25;;;9.10;99.90;;;;;;5056316;28;20032;-77
2024/02/26 03:02:25;;;;;;;0.40;0.30;;;9.10;99.90;;;;;;5054626;28;20170;-76
2024/02/26 03:04:51;;;;;;;4.07;0.50;;;9.00;99.90;;;;;;5055511;28;20033;-77
2024/02/26 03:07:16;;;;;;;1.40;0.40;;;9.00;99.90;;;;;;5054569;28;20025;-77
2024/02/26 03:09:42;;;;;;;0.38;0.30;;;9.00;99.90;;;;;;5056232;28;20100;-75
2024/02/26 03:12:08;;;;;;;0.70;0.40;;;8.90;99.90;;;;;;5056320;28;20021;-77
2024/02/26 03:14:33;;;;;;;0.77;0.30;;;8.90;99.90;;;;;;5055613;28;20033;-76
2024/02/26 03:16:59;;;;;;;0.50;0.50;;;8.90;99.90;;;;;;5055981;28;20021;-79
2024/02/26 03:19:24;;;;;;;0.95;0.30;;;8.80;99.90;;;;;;5055392;28;20032;-77
2024/02/26 03:21:50;;;;;;;1.65;0.40;;;8.80;99.90;;;;;;5055639;28;20386;-77
2024/02/26 03:24:16;;;;;;;1.30;0.40;;;8.80;99.90;;;;;;5054422;28;20040;-77
2024/02/26 03:26:41;;;;;;;0.40;0.30;;;8.70;99.90;;;;;;5055021;28;20414;-77
2024/02/26 03:29:07;;;;;;;0.52;0.30;;;8.70;99.90;;;;;;5054429;28;20071;-77
2024/02/26 03:31:32;;;;;;;1.80;0.40;;;8.60;99.90;;;;;;5054277;28;20040;-77
2024/02/26 03:33:58;;;;;;;0.60;0.40;;;8.60;99.90;;;;;;5055988;28;20032;-78
2024/02/26 03:36:24;;;;;;;0.38;0.30;;;8.60;99.90;;;;;;5054339;28;20032;-77
2024/02/26 03:38:49;;;;;;;0.28;0.28;;;8.60;99.90;;;;;;5055763;28;20028;-77
2024/02/26 03:41:15;;;;;;;1.67;0.38;;;8.70;99.90;;;;;;5054003;28;20029;-76
2024/02/26 03:43:41;;;;;;;0.77;0.50;;;8.70;99.90;;;;;;5054788;28;20036;-77
2024/02/26 03:46:13;;;;;;;0.65;0.32;;;8.60;99.90;;;;;;5054285;28;20056;-77
2024/02/26 03:48:43;;;;;;;0.55;0.30;;;8.60;99.90;;;;;;5054125;28;20055;-76
2024/02/26 03:51:10;;;;;;;0.90;0.40;;;8.60;99.90;;;;;;5054092;28;20028;-77
2024/02/26 03:53:36;;;;;;;1.67;0.85;;;8.50;99.90;;;;;;5053585;28;20029;-76
2024/02/26 03:56:05;;;;;;;0.73;0.60;;;8.40;99.90;;;;;;5054228;28;20025;-76
2024/02/26 03:58:31;;;;;;;2.17;0.55;;;8.50;99.90;;;;;;5053601;28;20032;-77
2024/02/26 04:00:57;;;;;;;1.10;0.55;;;8.50;99.90;;;;;;5054238;28;20033;-77
2024/02/26 04:03:23;;;;;;;0.35;0.30;;;8.50;99.90;;;;;;5053484;28;20037;-76
2024/02/26 04:05:48;;;;;;;0.20;0.20;;;8.40;99.90;;;;;;5054370;28;20116;-76
2024/02/26 04:08:14;;;;;;;1.38;0.50;;;8.40;99.90;;;;;;5053690;28;20025;-76
2024/02/26 04:10:39;;;;;;;1.13;0.40;;;8.40;99.90;;;;;;5053344;28;20079;-77
2024/02/26 04:13:07;;;;;;;0.93;0.45;;;8.50;99.90;;;;;;5054135;28;20120;-77
2024/02/26 04:15:32;;;;;;;0.77;0.30;;;8.40;99.90;;;;;;5054352;28;20082;-77
2024/02/26 04:17:58;;;;;;;0.57;0.40;;;8.50;99.90;;;;;;5053461;28;20025;-77
2024/02/26 04:20:24;;;;;;;1.30;0.50;;;8.50;99.90;;;;;;5054186;28;20032;-77
2024/02/26 04:22:49;;;;;;;0.60;0.30;;;8.50;99.90;;;;;;5054857;28;20047;-77
2024/02/26 04:25:15;;;;;;;0.50;0.50;;;8.40;99.90;;;;;;5054995;28;20025;-77
2024/02/26 04:27:40;;;;;;;1.67;0.40;;;8.40;99.90;;;;;;5052940;28;20036;-76
2024/02/26 04:30:07;;;;;;;0.50;0.30;;;8.50;99.90;;;;;;5053377;28;20040;-76
2024/02/26 04:32:34;;;;;;;1.10;0.50;;;8.50;99.90;;;;;;5053936;28;20158;-76
2024/02/26 04:35:00;;;;;;;1.73;0.50;;;8.50;99.90;;;;;;5054703;28;20100;-76
2024/02/26 04:37:30;;;;;;;0.70;0.40;;;8.60;99.90;;;;;;5052850;28;20021;-76
2024/02/26 04:39:59;;;;;;;0.68;0.30;;;8.50;99.90;;;;;;5053650;28;20535;-76
2024/02/26 04:42:25;;;;;;;0.35;0.30;;;8.60;99.90;;;;;;5053991;28;20059;-76
2024/02/26 04:44:51;;;;;;;0.55;0.40;;;8.60;99.90;;;;;;5054342;28;20429;-77
2024/02/26 04:47:16;;;;;;;0.50;0.50;;;8.60;99.90;;;;;;5054477;28;20462;-76
2024/02/26 04:49:42;;;;;;;0.50;0.40;;;8.60;99.90;;;;;;5052912;28;20112;-76
2024/02/26 04:52:07;;;;;;;4.55;0.50;;;8.60;99.90;;;;;;5054246;28;20373;-77
2024/02/26 04:54:33;;;;;;;0.40;0.40;;;8.60;99.90;;;;;;5053808;28;20032;-76
2024/02/26 04:56:59;;;;;;;1.48;0.40;;;8.60;99.90;;;;;;5054282;28;20021;-77
2024/02/26 04:59:24;;;;;;;0.50;0.35;;;8.60;99.90;;;;;;5052502;28;20091;-76
2024/02/26 05:01:52;;;;;;;0.70;0.43;;;8.60;99.90;;;;;;5053946;28;20036;-79
2024/02/26 05:04:18;;;;;;;1.40;0.40;;;8.60;99.90;;;;;;5053821;28;20056;-79
2024/02/26 05:06:44;;;;;;;0.40;0.40;;;8.60;99.90;;;;;;5052884;28;20028;-80
2024/02/26 05:09:09;;;;;;;1.13;0.50;;;8.60;99.90;;;;;;5053111;28;20096;-79
2024/02/26 05:11:35;;;;;;;0.60;0.40;;;8.60;99.90;;;;;;5052113;28;20032;-79
2024/02/26 05:14:00;;;;;;;1.77;0.50;;;8.60;99.90;;;;;;5054093;28;20082;-77
2024/02/26 05:16:27;;;;;;;0.90;0.40;;;8.60;99.90;;;;;;5052962;28;20021;-76
2024/02/26 05:18:53;;;;;;;0.57;0.50;;;8.70;99.90;;;;;;5052789;28;20025;-77
2024/02/26 05:21:18;;;;;;;0.43;0.28;;;8.60;99.90;;;;;;5052789;28;20033;-77
2024/02/26 05:23:45;;;;;;;1.27;0.45;;;8.70;99.90;;;;;;5052089;28;20044;-79
2024/02/26 05:26:11;;;;;;;2.33;0.40;;;8.70;99.90;;;;;;5052471;28;20021;-78
2024/02/26 05:28:39;;;;;;;1.00;0.40;;;8.70;99.90;;;;;;5051957;28;20428;-79
2024/02/26 05:31:05;;;;;;;0.90;0.43;;;8.70;99.90;;;;;;5052501;28;20478;-79
2024/02/26 05:33:30;;;;;;;1.65;0.50;;;8.80;99.90;;;;;;5052166;28;20079;-79
2024/02/26 05:35:56;;;;;;;0.40;0.35;;;8.70;99.90;;;;;;5052477;28;20028;-78
2024/02/26 05:38:21;;;;;;;0.68;0.50;;;8.70;99.90;;;;;;5052247;28;20108;-78
2024/02/26 05:40:47;;;;;;;0.47;0.32;;;8.70;99.90;;;;;;5053584;28;20021;-77
2024/02/26 05:43:15;;;;;;;0.70;0.40;;;8.70;99.90;;;;;;5052144;28;20110;-77
2024/02/26 05:45:41;;;;;;;0.50;0.30;;;8.70;99.90;;;;;;5051418;28;20297;-77
2024/02/26 05:48:07;;;;;;;0.55;0.30;;;8.60;99.90;;;;;;5052174;28;20360;-77
2024/02/26 05:50:32;;;;;;;0.70;0.50;;;8.60;99.90;;;;;;5051884;28;20032;-77
2024/02/26 05:52:58;;;;;;;0.47;0.30;;;8.60;99.90;;;;;;5052695;28;20032;-76
2024/02/26 05:55:23;;;;;;;1.23;0.55;;;8.60;99.90;;;;;;5052842;28;20527;-76
2024/02/26 05:57:49;;;;;;;0.93;0.50;;;8.60;99.90;;;;;;5053320;28;20021;-77
2024/02/26 06:00:15;;;;;;;0.50;0.40;;;8.60;99.90;;;;;;5051817;28;20485;-78
2024/02/26 06:02:41;;;;;;;0.70;0.47;;;8.60;99.90;;;;;;5051053;28;20029;-77
2024/02/26 06:05:08;;;;;;;0.90;0.45;;;8.50;99.90;;;;;;5051278;28;20036;-76
2024/02/26 06:07:34;;;;;;;0.88;0.47;;;8.50;99.90;;;;;;5051211;28;20025;-78
2024/02/26 06:10:00;;;;;;;0.65;0.40;;;8.60;99.90;;;;;;5051895;28;20032;-79
2024/02/26 06:12:28;;;;;;;0.85;0.50;;;8.60;99.90;;;;;;5051219;28;20025;-78
2024/02/26 06:14:54;;;;;;;0.90;0.40;;;8.60;99.90;;;;;;5052107;28;20132;-79
2024/02/26 06:17:19;;;;;;;0.30;0.30;;;8.60;99.90;;;;;;5051979;28;20041;-77
2024/02/26 06:19:46;;;;;;;0.90;0.38;;;8.60;99.90;;;;;;5051214;28;20119;-77
2024/02/26 06:22:11;;;;;;;0.43;0.40;;;8.60;99.90;;;;;;5051744;28;20060;-77
2024/02/26 06:24:37;;;;;;;0.45;0.35;;;8.60;99.90;;;;;;5052384;28;20071;-77
2024/02/26 06:27:03;;;;;;;0.93;0.30;;;8.60;99.90;;;;;;5051607;28;20032;-77
2024/02/26 06:29:29;;;;;;;0.85;0.40;;;8.50;99.90;;;;;;5051678;28;20036;-75
2024/02/26 06:31:55;;;;;;;0.73;0.47;;;8.50;99.90;;;;;;5051560;28;20029;-76
2024/02/26 06:34:21;;;;;;;0.85;0.65;;;8.50;99.90;;;;;;5051653;28;20032;-79
2024/02/26 06:36:47;;;;;;;0.70;0.30;;;8.50;99.90;;;;;;5051117;28;20021;-80
2024/02/26 06:39:12;;;;;;;0.88;0.52;;;8.60;99.90;;;;;;5050909;28;20032;-78
2024/02/26 06:41:39;;;;;;;0.60;0.50;;;8.60;99.90;;;;;;5053031;28;20041;-79
2024/02/26 06:44:05;;;;;;;1.83;0.40;;;8.60;99.90;;;;;;5051303;28;20029;-79
2024/02/26 06:46:31;;;;;;;0.68;0.60;;;8.60;99.90;;;;;;5049873;28;20470;-80
2024/02/26 06:48:56;;;;;;;1.13;0.68;;;8.60;99.90;;;;;;5050510;28;20025;-79
2024/02/26 06:51:22;;;;;;;0.65;0.60;;;8.60;99.90;;;;;;5051545;28;20037;-80
2024/02/26 06:53:49;;;;;;;1.92;0.88;;;8.60;99.90;;;;;;5067630;28;20462;-80
2024/02/26 06:56:15;;;;;;;2.15;0.80;;;8.60;99.90;;;;;;5068060;28;20032;-79
2024/02/26 06:58:40;;;;;;;1.85;0.90;;;8.60;99.90;;;;;;5051329;28;20024;-80
2024/02/26 07:01:08;;;;;;;2.03;1.02;;;8.60;99.90;;;;;;5052760;28;20036;-79
2024/02/26 07:03:34;;;;;;;3.15;1.15;;;8.60;99.90;;;;;;5050748;28;20036;-79
2024/02/26 07:05:59;;;;;;;1.35;0.77;;;8.60;99.90;;;;;;5051517;28;20029;-79
2024/02/26 07:08:25;;;;;;;1.13;0.90;;;8.70;99.90;;;;;;5051974;28;20033;-79
2024/02/26 07:10:51;;;;;;;2.65;0.98;;;8.70;99.90;;;;;;5067248;28;20029;-79
2024/02/26 07:13:16;;;;;;;3.55;1.02;;;8.70;99.90;;;;;;5068024;28;20033;-80
2024/02/26 07:15:42;;;;;;;1.65;0.77;;;8.70;99.90;;;;;;5067347;28;20029;-79
2024/02/26 07:18:07;;;;;;;1.58;0.77;;;8.80;99.90;;;;;;5052382;28;20037;-79
2024/02/26 07:20:33;;;;;;;1.38;0.75;;;8.80;99.90;;;;;;5067667;28;20033;-80
2024/02/26 07:22:58;;;;;;;1.73;0.73;;;8.80;99.90;;;;;;5052462;28;20040;-79
2024/02/26 07:25:24;;;;;;;1.88;0.63;;;8.80;99.90;;;;;;5052449;28;20021;-80
2024/02/26 07:27:50;;;;;;;0.93;0.70;;;8.90;99.90;;;;;;5055647;28;20060;-79
2024/02/26 07:30:16;;;;;;;1.42;0.73;;;8.80;99.90;;;;;;5071810;28;20437;-79
2024/02/26 07:32:42;;;;;;;2.17;0.98;;;8.90;99.90;;;;;;5071018;28;20033;-79
2024/02/26 07:35:08;;;;;;;1.85;0.77;;;8.90;99.90;;;;;;5054979;28;20119;-80
2024/02/26 07:37:34;;;;;;;0.88;0.60;;;8.90;99.90;;;;;;5055347;28;20130;-79
2024/02/26 07:40:00;;;;;;;1.60;0.60;;;8.80;99.90;;;;;;5071507;28;20466;-79
2024/02/26 07:42:26;;;;;;;0.98;0.60;;;8.70;99.90;;;;;;5055205;28;20124;-79
2024/02/26 07:44:52;;;;;;;1.00;0.63;;;8.80;99.90;;;;;;5070485;28;20049;-79
2024/02/26 07:47:18;;;;;;;1.02;0.52;;;8.90;99.90;;;;;;5055730;28;20527;-79
2024/02/26 07:49:44;;;;;;;0.82;0.60;;;8.90;99.90;;;;;;5054980;28;20025;-79
2024/02/26 07:52:10;;;;;;;0.80;0.60;;;8.90;99.90;;;;;;5055428;28;20478;-79
2024/02/26 07:54:35;;;;;;;1.15;0.82;;;9.00;99.90;;;;;;5070545;28;20036;-79
2024/02/26 07:57:03;;;;;;;1.90;0.70;;;9.00;99.90;;;;;;5054555;28;20080;-79
2024/02/26 07:59:29;;;;;;;3.42;0.80;;;9.10;99.90;;;;;;5055223;28;20102;-77
2024/02/26 08:01:54;;;;;;;1.08;0.70;;;9.00;99.90;;;;;;5071506;28;20068;-79
2024/02/26 08:04:20;;;;;;;3.35;0.52;;;9.00;99.90;;;;;;5071156;28;20029;-79
2024/02/26 08:06:45;;;;;;;1.77;0.60;;;8.90;99.90;;;;;;5053749;28;20028;-79
2024/02/26 08:09:12;;;;;;;3.10;0.50;;;8.90;99.90;;;;;;5055442;28;20092;-79
2024/02/26 08:11:38;;;;;;;2.08;0.50;;;8.90;99.90;;;;;;5070079;28;20055;-79
2024/02/26 08:14:05;;;;;;;0.77;0.55;;;8.80;99.90;;;;;;5070823;28;20037;-79
2024/02/26 08:16:30;;;;;;;1.20;0.70;;;8.90;99.90;;;;;;5070286;28;20033;-77
2024/02/26 08:18:56;;;;;;;1.13;0.70;;;8.90;99.90;;;;;;5054974;28;20032;-79
2024/02/26 08:21:22;;;;;;;2.35;0.90;;;8.90;99.90;;;;;;5053447;28;20078;-79
2024/02/26 08:23:47;;;;;;;1.65;0.60;;;9.00;99.90;;;;;;5054570;28;20037;-79
2024/02/26 08:26:13;;;;;;;0.80;0.50;;;9.00;99.90;;;;;;5054898;28;20065;-80
2024/02/26 08:28:38;;;;;;;0.75;0.60;;;9.10;99.90;;;;;;5053090;28;20021;-79
2024/02/26 08:31:04;;;;;;;1.58;0.80;;;9.10;99.90;;;;;;5055086;28;20043;-79
2024/02/26 08:33:30;;;;;;;0.82;0.70;;;9.20;99.90;;;;;;5055151;28;20029;-79
2024/02/26 08:35:56;;;;;;;1.20;0.80;;;9.40;99.90;;;;;;5054782;28;20032;-79
2024/02/26 08:38:22;;;;;;;1.67;0.88;;;9.50;99.90;;;;;;5069429;28;20021;-79
2024/02/26 08:40:48;;;;;;;5.18;1.17;;;9.60;99.90;;;;;;5069893;28;20025;-79
2024/02/26 08:43:14;;;;;;;1.52;0.90;;;9.60;99.90;;;;;;5070203;28;20028;-79
2024/02/26 08:45:39;;;;;;;2.28;0.88;;;9.60;99.90;;;;;;5069204;28;20507;-79
2024/02/26 08:48:05;;;;;;;2.95;1.15;;;9.70;99.90;;;;;;5054723;28;20025;-79
2024/02/26 08:50:31;;;;;;;1.30;0.80;;;9.60;99.90;;;;;;5054773;28;20101;-79
2024/02/26 08:52:57;;;;;;;1.23;0.60;;;9.60;99.90;;;;;;5054539;28;20029;-79
2024/02/26 08:55:23;;;;;;;1.75;0.73;;;9.60;99.90;;;;;;5070202;28;20363;-80
2024/02/26 08:57:48;;;;;;;1.42;0.52;;;9.60;99.90;;;;;;5052406;28;20029;-79
2024/02/26 09:00:15;;;;;;;1.98;0.82;;;9.60;99.90;;;;;;5069551;28;20029;-80
2024/02/26 09:02:43;;;;;;;1.63;0.95;;;9.70;99.90;;;;;;5069330;28;20470;-79
2024/02/26 09:05:10;;;;;;;0.90;0.63;;;9.70;99.90;;;;;;5069805;28;20033;-79
2024/02/26 09:07:36;;;;;;;2.20;0.85;;;9.80;99.90;;;;;;5052387;28;20036;-78
2024/02/26 09:10:02;;;;;;;1.35;0.70;;;9.90;99.90;;;;;;5054120;28;20077;-79
2024/02/26 09:12:28;;;;;;;0.90;0.70;;;9.90;99.90;;;;;;5052712;28;20104;-79
2024/02/26 09:14:56;;;;;;;0.80;0.60;;;10.10;99.90;;;;;;5068963;28;20060;-78
2024/02/26 09:17:21;;;;;;;1.35;0.70;;;10.20;99.90;;;;;;5054003;28;20021;-79
2024/02/26 09:19:47;;;;;;;1.83;0.60;;;10.20;99.90;;;;;;5052269;28;20048;-79
2024/02/26 09:22:12;;;;;;;1.17;0.73;;;10.20;99.90;;;;;;5069468;28;20182;-80
2024/02/26 09:24:38;;;;;;;1.55;0.65;;;10.30;99.90;;;;;;5069289;28;20033;-80
2024/02/26 09:27:04;;;;;;;2.42;0.70;;;10.40;99.90;;;;;;5069631;28;20028;-80
2024/02/26 09:29:29;;;;;;;2.75;0.80;;;10.40;99.90;;;;;;5069277;28;20033;-79
2024/02/26 09:31:55;;;;;;;2.63;0.60;;;10.40;99.90;;;;;;5053034;28;20056;-79
2024/02/26 09:34:20;;;;;;;1.60;0.90;;;10.40;99.90;;;;;;5053929;28;20029;-79
2024/02/26 09:36:46;;;;;;;1.17;0.75;;;10.50;99.90;;;;;;5053145;28;20029;-79
2024/02/26 09:39:12;;;;;;;0.77;0.70;;;10.50;99.90;;;;;;5052587;28;20481;-79
2024/02/26 09:41:38;;;;;;;0.80;0.70;;;10.50;99.90;;;;;;5068267;28;20033;-78
2024/02/26 09:44:05;;;;;;;0.98;0.75;;;10.50;99.90;;;;;;5053464;28;20500;-78
2024/02/26 09:46:31;;;;;;;1.58;0.85;;;10.60;99.90;;;;;;5052308;28;20041;-79
2024/02/26 09:48:58;;;;;;;0.65;0.60;;;10.60;99.90;;;;;;5068395;28;20463;-79
2024/02/26 09:51:25;;;;;;;3.03;1.83;;;10.60;99.90;;;;;;5069046;28;20037;-76
2024/02/26 09:53:52;;;;;;;1.00;0.68;;;10.70;99.90;;;;;;5052831;28;20017;-76
2024/02/26 09:56:19;;;;;;;0.90;0.60;;;10.80;99.90;;;;;;5068758;28;20025;-78
2024/02/26 09:58:48;;;;;;;1.00;0.50;;;10.80;99.90;;;;;;5068118;28;20029;-79
2024/02/26 10:01:18;;;;;;;1.08;0.57;;;10.80;99.90;;;;;;5052179;28;20035;-79
2024/02/26 10:03:44;;;;;;;2.97;0.63;;;10.90;99.90;;;;;;5068207;28;20037;-79
2024/02/26 10:06:10;;;;;;;2.28;0.77;;;11.00;99.90;;;;;;5053331;28;20048;-79
2024/02/26 10:08:37;;;;;;;1.20;0.70;;;11.10;99.90;;;;;;5068662;28;20025;-77
2024/02/26 10:11:04;;;;;;;3.03;0.90;;;11.10;99.90;;;;;;5052006;28;20029;-79
2024/02/26 10:13:30;;;;;;;2.08;0.70;;;11.20;99.90;;;;;;5053225;28;20032;-79
2024/02/26 10:15:56;;;;;;;1.00;0.80;;;11.20;99.90;;;;;;5051471;28;20465;-79
2024/02/26 10:18:24;;;;;;;0.75;0.70;;;11.10;99.90;;;;;;5068551;28;20021;-77
2024/02/26 10:21:01;;;;;;;1.70;0.82;;;11.20;99.90;;;;;;5052315;28;20025;-77
2024/02/26 10:23:27;;;;;;;0.70;0.60;;;11.20;99.90;;;;;;5068436;28;20490;-76
2024/02/26 10:25:56;;;;;;;0.60;0.60;;;11.30;99.90;;;;;;5067888;28;20036;-76
2024/02/26 10:28:22;;;;;;;1.38;0.75;;;11.40;99.90;;;;;;5068405;28;20074;-76
2024/02/26 10:30:48;;;;;;;1.90;0.50;;;11.40;99.90;;;;;;5067684;28;20043;-76
2024/02/26 10:33:14;;;;;;;1.15;0.73;;;11.30;99.90;;;;;;5068230;28;20518;-76
2024/02/26 10:35:44;;;;;;;1.98;0.63;;;11.40;99.90;;;;;;5052162;28;20025;-75
2024/02/26 10:38:10;;;;;;;1.95;0.70;;;11.40;99.90;;;;;;5053031;28;20049;-76
2024/02/26 10:40:37;;;;;;;2.38;0.93;;;11.50;99.90;;;;;;5068305;28;20082;-76
2024/02/26 10:43:02;;;;;;;2.05;0.82;;;11.60;99.90;;;;;;5050662;28;20048;-76
2024/02/26 10:45:28;;;;;;;1.42;0.80;;;11.80;99.90;;;;;;5052472;28;20061;-76
2024/02/26 10:47:54;;;;;;;1.98;0.85;;;11.80;99.90;;;;;;5067629;28;20025;-76
2024/02/26 10:50:19;;;;;;;1.67;0.52;;;11.80;99.90;;;;;;5068029;28;20025;-76
2024/02/26 10:52:45;;;;;;;2.53;0.70;;;11.90;99.90;;;;;;5067588;28;20037;-77
2024/02/26 10:55:19;;;;;;;0.90;0.63;;;11.90;99.90;;;;;;5067897;28;20033;-77
2024/02/26 10:57:47;;;;;;;3.10;0.80;;;11.90;99.90;;;;;;5067899;28;20112;-77
2024/02/26 11:00:15;;;;;;;1.50;0.90;;;11.90;99.90;;;;;;5068427;28;20029;-77
2024/02/26 11:02:41;;;;;;;1.73;0.80;;;12.00;99.90;;;;;;5054515;28;20037;-76
2024/02/26 11:05:08;;;;;;;5.07;0.98;;;12.00;99.90;;;;;;5072056;28;20017;-78
2024/02/26 11:07:38;;;;;;;3.42;0.60;;;12.10;99.90;;;;;;5071996;28;20024;-77
2024/02/26 11:10:05;;;;;;;2.25;0.60;;;12.10;99.90;;;;;;5071230;28;20032;-77
2024/02/26 11:12:34;;;;;;;2.83;0.80;;;12.10;99.90;;;;;;5056074;28;20033;-77
2024/02/26 11:15:01;;;;;;;1.10;0.70;;;12.10;99.90;;;;;;5070933;28;20064;-77
2024/02/26 11:17:31;;;;;;;1.42;0.60;;;12.00;99.90;;;;;;5071239;28;20034;-77
2024/02/26 11:19:58;;;;;;;1.13;0.60;;;12.00;99.90;;;;;;5070753;28;20044;-77
2024/02/26 11:22:26;;;;;;;0.90;0.52;;;12.00;99.90;;;;;;5055806;28;20116;-77
2024/02/26 11:25:00;;;;;;;0.80;0.60;;;12.00;99.90;;;;;;5070896;28;20025;-76
2024/02/26 11:27:34;;;;;;;1.98;0.65;;;12.10;99.90;;;;;;5071245;28;20032;-77
2024/02/26 11:30:02;;;;;;;2.67;0.60;;;12.10;99.90;;;;;;5070792;28;20024;-76
2024/02/26 11:32:30;;;;;;;1.58;0.68;;;12.20;99.90;;;;;;5071228;28;20074;-77
2024/02/26 11:34:57;;;;;;;1.52;0.60;;;12.20;99.90;;;;;;5055209;28;20112;-77
2024/02/26 11:37:23;;;;;;;0.73;0.50;;;12.20;99.90;;;;;;5071502;28;20083;-76
2024/02/26 11:39:51;;;;;;;1.25;0.80;;;12.30;99.90;;;;;;5055318;28;20443;-77
2024/02/26 11:42:18;;;;;;;0.60;0.45;;;12.30;99.90;;;;;;5071187;28;20045;-77
2024/02/26 11:44:43;;;;;;;3.53;0.73;;;12.50;99.90;;;;;;5070453;28;20063;-77
2024/02/26 11:47:17;;;;;;;1.20;0.45;;;12.60;99.90;;;;;;5055682;28;20033;-77
2024/02/26 11:49:42;;;;;;;1.42;0.57;;;12.70;99.90;;;;;;5055165;28;20036;-75
2024/02/26 11:52:09;;;;;;;1.95;0.57;;;12.80;99.90;;;;;;5071325;28;20029;-77
2024/02/26 11:54:45;;;;;;;1.88;0.50;;;12.80;99.90;;;;;;5071129;28;20032;-77
2024/02/26 11:57:28;;;;;;;1.42;0.38;;;12.90;99.90;;;;;;5055528;28;20477;-76
2024/02/26 12:00:17;;;;;;;1.85;0.60;;;13.00;99.90;;;;;;5070603;28;20036;-77
2024/02/26 12:02:43;;;;;;;0.85;0.60;;;13.00;99.90;;;;;;5071067;28;20060;-77
2024/02/26 12:05:16;;;;;;;1.10;0.40;;;13.20;99.90;;;;;;5055550;28;20032;-77
2024/02/26 12:07:49;;;;;;;0.73;0.47;;;13.40;99.90;;;;;;5070941;28;20040;-77
2024/02/26 12:10:15;;;;;;;6.32;0.40;;;13.50;99.90;;;;;;5070845;28;20541;-77
2024/02/26 12:12:41;;;;;;;0.45;0.28;;;13.50;99.90;;;;;;5069266;28;20029;-77
2024/02/26 12:15:10;;;;;;;0.80;0.47;;;13.70;99.90;;;;;;5069976;28;20033;-77
2024/02/26 12:17:36;;;;;;;0.40;0.30;;;13.70;99.90;;;;;;5070630;28;20431;-77
2024/02/26 12:20:12;;;;;;;1.52;0.40;;;13.70;99.90;;;;;;5054469;28;20033;-77
2024/02/26 12:22:46;;;;;;;0.50;0.40;;;13.80;99.90;;;;;;5070334;28;20029;-77
2024/02/26 12:25:13;;;;;;;0.52;0.30;;;14.00;99.90;;;;;;5053922;28;20047;-77
2024/02/26 12:27:38;;;;;;;2.50;0.40;;;14.00;99.90;;;;;;5070519;28;20028;-77
2024/02/26 12:30:07;;;;;;;2.35;0.32;;;14.10;99.90;;;;;;5069895;28;20689;-77
2024/02/26 12:32:32;;;;;;;1.52;0.45;;;14.10;99.90;;;;;;5070737;28;20493;-77
2024/02/26 12:34:59;;;;;;;0.70;0.47;;;14.10;99.90;;;;;;5054475;28;20056;-77
2024/02/26 12:37:26;;;;;;;1.55;0.57;;;14.00;99.90;;;;;;5070347;28;20386;-77
2024/02/26 12:39:52;;;;;;;0.38;0.30;;;14.10;99.90;;;;;;5054193;28;20053;-77
2024/02/26 12:42:18;;;;;;;1.15;0.40;;;14.20;99.90;;;;;;5054512;28;20072;-77
2024/02/26 12:44:46;;;;;;;2.90;0.50;;;14.10;99.90;;;;;;5054516;28;20418;-78
2024/02/26 12:47:16;;;;;;;0.70;0.40;;;14.20;99.90;;;;;;5054786;28;20035;-77
2024/02/26 12:49:44;;;;;;;0.60;0.43;;;14.30;99.90;;;;;;5054556;28;20021;-78
2024/02/26 12:52:10;;;;;;;0.90;0.47;;;14.30;99.90;;;;;;5053843;28;20024;-78